sensor_id;sensor_type;location;lat;lon;timestamp;pressure;altitude;pressure_sealevel;temperature;humidity
49723;BME280;43484;43.608;1.458;2023-05-28T00:02:34;99513.84;;;22.55;100.00
49723;BME280;43484;43.608;1.458;2023-05-28T00:05:01;99508.66;;;22.54;100.00
49723;BME280;43484;43.608;1.458;2023-05-28T00:07:29;99504.44;;;22.47;100.00
49723;BME280;43484;43.608;1.458;2023-05-28T00:09:57;99508.84;;;22.45;100.00
49723;BME280;43484;43.608;1.458;2023-05-28T00:12:24;99498.50;;;22.40;100.00
49723;BME280;43484;43.608;1.458;2023-05-28T00:14:51;99502.00;;;22.39;100.00
49723;BME280;43484;43.608;1.458;2023-05-28T00:17:18;99503.06;;;22.32;100.00
49723;BME280;43484;43.608;1.458;2023-05-28T00:19:45;99503.34;;;22.20;100.00
49723;BME280;43484;43.608;1.458;2023-05-28T00:22:12;99500.00;;;22.13;100.00
49723;BME280;43484;43.608;1.458;2023-05-28T00:24:39;99509.47;;;22.17;100.00
49723;BME280;43484;43.608;1.458;2023-05-28T00:27:06;99506.94;;;22.14;100.00
49723;BME280;43484;43.608;1.458;2023-05-28T00:29:32;99501.72;;;22.14;100.00
49723;BME280;43484;43.608;1.458;2023-05-28T00:31:59;99493.88;;;22.14;100.00
49723;BME280;43484;43.608;1.458;2023-05-28T00:34:26;99496.69;;;22.07;100.00
49723;BME280;43484;43.608;1.458;2023-05-28T00:36:53;99492.38;;;22.04;100.00
49723;BME280;43484;43.608;1.458;2023-05-28T00:39:20;99495.91;;;22.02;100.00
49723;BME280;43484;43.608;1.458;2023-05-28T00:41:47;99493.53;;;21.91;100.00
49723;BME280;43484;43.608;1.458;2023-05-28T00:44:13;99494.34;;;21.95;100.00
49723;BME280;43484;43.608;1.458;2023-05-28T00:46:42;99497.81;;;21.94;100.00
49723;BME280;43484;43.608;1.458;2023-05-28T00:49:10;99489.25;;;21.87;100.00
49723;BME280;43484;43.608;1.458;2023-05-28T00:51:38;99497.13;;;21.86;100.00
49723;BME280;43484;43.608;1.458;2023-05-28T00:54:05;99485.03;;;21.83;100.00
49723;BME280;43484;43.608;1.458;2023-05-28T00:56:32;99496.25;;;21.85;100.00
49723;BME280;43484;43.608;1.458;2023-05-28T00:58:59;99491.19;;;21.79;100.00
49723;BME280;43484;43.608;1.458;2023-05-28T01:01:31;99490.31;;;21.79;100.00
49723;BME280;43484;43.608;1.458;2023-05-28T01:03:58;99493.88;;;21.75;100.00
49723;BME280;43484;43.608;1.458;2023-05-28T01:06:27;99495.63;;;21.73;100.00
49723;BME280;43484;43.608;1.458;2023-05-28T01:08:55;99494.00;;;21.67;100.00
49723;BME280;43484;43.608;1.458;2023-05-28T01:11:23;99482.97;;;21.56;100.00
49723;BME280;43484;43.608;1.458;2023-05-28T01:13:51;99482.09;;;21.56;100.00
49723;BME280;43484;43.608;1.458;2023-05-28T01:16:19;99489.84;;;21.59;100.00
49723;BME280;43484;43.608;1.458;2023-05-28T01:18:46;99494.38;;;21.49;100.00
49723;BME280;43484;43.608;1.458;2023-05-28T01:21:13;99488.44;;;21.43;100.00
49723;BME280;43484;43.608;1.458;2023-05-28T01:23:47;99492.84;;;21.39;100.00
49723;BME280;43484;43.608;1.458;2023-05-28T01:26:15;99494.66;;;21.36;100.00
49723;BME280;43484;43.608;1.458;2023-05-28T01:28:46;99495.63;;;21.32;100.00
49723;BME280;43484;43.608;1.458;2023-05-28T01:31:13;99485.97;;;21.35;100.00
49723;BME280;43484;43.608;1.458;2023-05-28T01:33:41;99487.63;;;21.39;100.00
49723;BME280;43484;43.608;1.458;2023-05-28T01:36:18;99486.09;;;21.29;100.00
49723;BME280;43484;43.608;1.458;2023-05-28T01:38:47;99488.94;;;21.17;100.00
49723;BME280;43484;43.608;1.458;2023-05-28T01:41:15;99489.03;;;21.12;100.00
49723;BME280;43484;43.608;1.458;2023-05-28T01:43:43;99479.44;;;21.14;100.00
49723;BME280;43484;43.608;1.458;2023-05-28T01:46:11;99479.56;;;21.07;100.00
49723;BME280;43484;43.608;1.458;2023-05-28T01:48:38;99480.59;;;20.98;100.00
49723;BME280;43484;43.608;1.458;2023-05-28T01:51:05;99478.00;;;20.97;100.00
49723;BME280;43484;43.608;1.458;2023-05-28T01:53:33;99482.34;;;20.99;100.00
49723;BME280;43484;43.608;1.458;2023-05-28T01:55:59;99481.28;;;21.09;100.00
49723;BME280;43484;43.608;1.458;2023-05-28T01:58:28;99475.31;;;21.03;100.00
49723;BME280;43484;43.608;1.458;2023-05-28T02:01:05;99482.44;;;20.90;100.00
49723;BME280;43484;43.608;1.458;2023-05-28T02:03:35;99482.38;;;20.93;100.00
49723;BME280;43484;43.608;1.458;2023-05-28T02:06:02;99485.06;;;20.90;100.00
49723;BME280;43484;43.608;1.458;2023-05-28T02:08:28;99483.38;;;20.88;100.00
49723;BME280;43484;43.608;1.458;2023-05-28T02:10:55;99480.81;;;20.86;100.00
49723;BME280;43484;43.608;1.458;2023-05-28T02:13:22;99486.91;;;20.84;100.00
49723;BME280;43484;43.608;1.458;2023-05-28T02:15:49;99476.47;;;20.85;100.00
49723;BME280;43484;43.608;1.458;2023-05-28T02:18:15;99481.06;;;20.70;100.00
49723;BME280;43484;43.608;1.458;2023-05-28T02:20:42;99482.72;;;20.75;100.00
49723;BME280;43484;43.608;1.458;2023-05-28T02:23:09;99484.72;;;20.60;100.00
49723;BME280;43484;43.608;1.458;2023-05-28T02:25:36;99484.72;;;20.58;100.00
49723;BME280;43484;43.608;1.458;2023-05-28T02:28:03;99483.91;;;20.58;100.00
49723;BME280;43484;43.608;1.458;2023-05-28T02:30:30;99487.53;;;20.48;100.00
49723;BME280;43484;43.608;1.458;2023-05-28T02:32:56;99483.13;;;20.50;100.00
49723;BME280;43484;43.608;1.458;2023-05-28T02:35:23;99483.84;;;20.61;100.00
49723;BME280;43484;43.608;1.458;2023-05-28T02:37:50;99490.97;;;20.48;100.00
49723;BME280;43484;43.608;1.458;2023-05-28T02:40:16;99487.63;;;20.42;100.00
49723;BME280;43484;43.608;1.458;2023-05-28T02:42:43;99481.59;;;20.38;100.00
49723;BME280;43484;43.608;1.458;2023-05-28T02:45:13;99486.91;;;20.32;100.00
49723;BME280;43484;43.608;1.458;2023-05-28T02:47:39;99488.66;;;20.30;100.00
49723;BME280;43484;43.608;1.458;2023-05-28T02:50:06;99478.25;;;20.30;100.00
49723;BME280;43484;43.608;1.458;2023-05-28T02:52:33;99481.84;;;20.22;100.00
49723;BME280;43484;43.608;1.458;2023-05-28T02:55:00;99473.06;;;20.30;100.00
49723;BME280;43484;43.608;1.458;2023-05-28T02:57:26;99479.31;;;20.19;100.00
49723;BME280;43484;43.608;1.458;2023-05-28T02:59:53;99477.63;;;20.12;100.00
49723;BME280;43484;43.608;1.458;2023-05-28T03:02:20;99480.25;;;20.12;100.00
49723;BME280;43484;43.608;1.458;2023-05-28T03:04:47;99475.00;;;20.16;100.00
49723;BME280;43484;43.608;1.458;2023-05-28T03:07:13;99482.78;;;20.15;100.00
49723;BME280;43484;43.608;1.458;2023-05-28T03:09:41;99474.94;;;20.21;100.00
49723;BME280;43484;43.608;1.458;2023-05-28T03:12:07;99471.53;;;20.14;100.00
49723;BME280;43484;43.608;1.458;2023-05-28T03:14:34;99478.38;;;20.23;100.00
49723;BME280;43484;43.608;1.458;2023-05-28T03:17:01;99486.97;;;20.26;100.00
49723;BME280;43484;43.608;1.458;2023-05-28T03:19:28;99475.09;;;20.07;100.00
49723;BME280;43484;43.608;1.458;2023-05-28T03:21:54;99477.72;;;20.07;100.00
49723;BME280;43484;43.608;1.458;2023-05-28T03:24:21;99465.59;;;20.05;100.00
49723;BME280;43484;43.608;1.458;2023-05-28T03:26:48;99471.84;;;19.93;100.00
49723;BME280;43484;43.608;1.458;2023-05-28T03:29:14;99470.19;;;19.89;100.00
49723;BME280;43484;43.608;1.458;2023-05-28T03:31:45;99478.72;;;19.97;100.00
49723;BME280;43484;43.608;1.458;2023-05-28T03:34:13;99478.88;;;19.86;100.00
49723;BME280;43484;43.608;1.458;2023-05-28T03:36:40;99476.31;;;19.83;100.00
49723;BME280;43484;43.608;1.458;2023-05-28T03:39:10;99484.09;;;19.83;100.00
49723;BME280;43484;43.608;1.458;2023-05-28T03:41:37;99486.72;;;19.83;100.00
49723;BME280;43484;43.608;1.458;2023-05-28T03:44:04;99489.38;;;19.79;100.00
49723;BME280;43484;43.608;1.458;2023-05-28T03:46:31;99486.72;;;19.82;100.00
49723;BME280;43484;43.608;1.458;2023-05-28T03:48:58;99486.78;;;19.79;100.00
49723;BME280;43484;43.608;1.458;2023-05-28T03:51:25;99482.34;;;19.85;100.00
49723;BME280;43484;43.608;1.458;2023-05-28T03:53:54;99495.50;;;19.73;100.00
49723;BME280;43484;43.608;1.458;2023-05-28T03:56:21;99494.59;;;19.77;100.00
49723;BME280;43484;43.608;1.458;2023-05-28T03:58:49;99497.19;;;19.76;100.00
49723;BME280;43484;43.608;1.458;2023-05-28T04:01:16;99490.41;;;19.67;100.00
49723;BME280;43484;43.608;1.458;2023-05-28T04:03:43;99495.56;;;19.69;100.00
49723;BME280;43484;43.608;1.458;2023-05-28T04:06:10;99498.22;;;19.63;100.00
49723;BME280;43484;43.608;1.458;2023-05-28T04:08:36;99494.03;;;19.51;100.00
49723;BME280;43484;43.608;1.458;2023-05-28T04:11:03;99499.22;;;19.53;100.00
49723;BME280;43484;43.608;1.458;2023-05-28T04:13:30;99499.97;;;19.61;100.00
49723;BME280;43484;43.608;1.458;2023-05-28T04:15:57;99500.03;;;19.58;100.00
49723;BME280;43484;43.608;1.458;2023-05-28T04:18:24;99494.94;;;19.50;100.00
49723;BME280;43484;43.608;1.458;2023-05-28T04:20:51;99501.03;;;19.46;100.00
49723;BME280;43484;43.608;1.458;2023-05-28T04:23:17;99496.72;;;19.45;100.00
49723;BME280;43484;43.608;1.458;2023-05-28T04:25:44;99505.34;;;19.50;100.00
49723;BME280;43484;43.608;1.458;2023-05-28T04:28:11;99499.41;;;19.38;100.00
49723;BME280;43484;43.608;1.458;2023-05-28T04:30:37;99504.63;;;19.35;100.00
49723;BME280;43484;43.608;1.458;2023-05-28T04:33:04;99501.19;;;19.33;100.00
49723;BME280;43484;43.608;1.458;2023-05-28T04:35:31;99501.13;;;19.39;100.00
49723;BME280;43484;43.608;1.458;2023-05-28T04:37:58;99509.88;;;19.29;100.00
49723;BME280;43484;43.608;1.458;2023-05-28T04:40:26;99504.69;;;19.30;100.00
49723;BME280;43484;43.608;1.458;2023-05-28T04:42:53;99502.06;;;19.33;100.00
49723;BME280;43484;43.608;1.458;2023-05-28T04:45:21;99501.16;;;19.36;100.00
49723;BME280;43484;43.608;1.458;2023-05-28T04:47:48;99507.13;;;19.44;100.00
49723;BME280;43484;43.608;1.458;2023-05-28T04:50:17;99508.78;;;19.49;100.00
49723;BME280;43484;43.608;1.458;2023-05-28T04:52:44;99514.97;;;19.39;100.00
49723;BME280;43484;43.608;1.458;2023-05-28T04:55:10;99510.69;;;19.37;100.00
49723;BME280;43484;43.608;1.458;2023-05-28T04:57:38;99511.63;;;19.30;100.00
49723;BME280;43484;43.608;1.458;2023-05-28T05:00:06;99522.78;;;19.36;100.00
49723;BME280;43484;43.608;1.458;2023-05-28T05:02:38;99526.31;;;19.34;100.00
49723;BME280;43484;43.608;1.458;2023-05-28T05:05:06;99523.66;;;19.37;100.00
49723;BME280;43484;43.608;1.458;2023-05-28T05:07:37;99526.19;;;19.43;100.00
49723;BME280;43484;43.608;1.458;2023-05-28T05:10:08;99522.66;;;19.50;100.00
49723;BME280;43484;43.608;1.458;2023-05-28T05:12:36;99525.25;;;19.48;100.00
49723;BME280;43484;43.608;1.458;2023-05-28T05:15:03;99527.81;;;19.51;100.00
49723;BME280;43484;43.608;1.458;2023-05-28T05:17:32;99527.88;;;19.47;100.00
49723;BME280;43484;43.608;1.458;2023-05-28T05:20:01;99525.19;;;19.57;100.00
49723;BME280;43484;43.608;1.458;2023-05-28T05:22:28;99513.00;;;19.62;100.00
49723;BME280;43484;43.608;1.458;2023-05-28T05:24:55;99515.63;;;19.56;100.00
49723;BME280;43484;43.608;1.458;2023-05-28T05:27:21;99520.78;;;19.61;100.00
49723;BME280;43484;43.608;1.458;2023-05-28T05:29:48;99519.81;;;19.68;100.00
49723;BME280;43484;43.608;1.458;2023-05-28T05:32:15;99519.78;;;19.72;100.00
49723;BME280;43484;43.608;1.458;2023-05-28T05:34:41;99515.44;;;19.71;100.00
49723;BME280;43484;43.608;1.458;2023-05-28T05:37:08;99535.25;;;19.81;100.00
49723;BME280;43484;43.608;1.458;2023-05-28T05:39:34;99521.28;;;19.90;100.00
49723;BME280;43484;43.608;1.458;2023-05-28T05:42:01;99523.03;;;19.88;100.00
49723;BME280;43484;43.608;1.458;2023-05-28T05:44:28;99531.78;;;19.84;100.00
49723;BME280;43484;43.608;1.458;2023-05-28T05:46:55;99525.50;;;19.98;100.00
49723;BME280;43484;43.608;1.458;2023-05-28T05:49:21;99518.59;;;19.96;100.00
49723;BME280;43484;43.608;1.458;2023-05-28T05:51:48;99528.91;;;20.04;100.00
49723;BME280;43484;43.608;1.458;2023-05-28T05:54:15;99522.06;;;19.96;100.00
49723;BME280;43484;43.608;1.458;2023-05-28T05:56:41;99521.31;;;19.87;100.00
49723;BME280;43484;43.608;1.458;2023-05-28T05:59:08;99519.75;;;19.75;100.00
49723;BME280;43484;43.608;1.458;2023-05-28T06:01:34;99521.38;;;19.81;100.00
49723;BME280;43484;43.608;1.458;2023-05-28T06:04:02;99522.13;;;19.92;100.00
49723;BME280;43484;43.608;1.458;2023-05-28T06:06:28;99529.84;;;19.98;100.00
49723;BME280;43484;43.608;1.458;2023-05-28T06:08:55;99536.03;;;19.88;100.00
49723;BME280;43484;43.608;1.458;2023-05-28T06:11:22;99534.44;;;19.78;100.00
49723;BME280;43484;43.608;1.458;2023-05-28T06:13:49;99531.72;;;19.88;100.00
49723;BME280;43484;43.608;1.458;2023-05-28T06:16:17;99532.38;;;20.01;100.00
49723;BME280;43484;43.608;1.458;2023-05-28T06:18:44;99534.03;;;20.08;100.00
49723;BME280;43484;43.608;1.458;2023-05-28T06:21:11;99532.22;;;20.13;100.00
49723;BME280;43484;43.608;1.458;2023-05-28T06:23:37;99533.06;;;20.18;100.00
49723;BME280;43484;43.608;1.458;2023-05-28T06:26:04;99538.31;;;20.14;100.00
49723;BME280;43484;43.608;1.458;2023-05-28T06:28:31;99533.06;;;20.18;100.00
49723;BME280;43484;43.608;1.458;2023-05-28T06:30:59;99532.16;;;20.22;100.00
49723;BME280;43484;43.608;1.458;2023-05-28T06:33:26;99526.78;;;20.31;100.00
49723;BME280;43484;43.608;1.458;2023-05-28T06:35:52;99528.53;;;20.32;100.00
49723;BME280;43484;43.608;1.458;2023-05-28T06:38:19;99535.38;;;20.39;100.00
49723;BME280;43484;43.608;1.458;2023-05-28T06:40:46;99526.56;;;20.46;100.00
49723;BME280;43484;43.608;1.458;2023-05-28T06:43:13;99526.78;;;20.34;100.00
49723;BME280;43484;43.608;1.458;2023-05-28T06:45:39;99530.13;;;20.41;100.00
49723;BME280;43484;43.608;1.458;2023-05-28T06:48:06;99531.00;;;20.40;100.00
49723;BME280;43484;43.608;1.458;2023-05-28T06:50:33;99539.59;;;20.48;100.00
49723;BME280;43484;43.608;1.458;2023-05-28T06:53:00;99533.28;;;20.61;100.00
49723;BME280;43484;43.608;1.458;2023-05-28T06:55:28;99528.97;;;20.58;100.00
49723;BME280;43484;43.608;1.458;2023-05-28T06:57:55;99529.75;;;20.65;100.00
49723;BME280;43484;43.608;1.458;2023-05-28T07:00:21;99524.38;;;20.75;100.00
49723;BME280;43484;43.608;1.458;2023-05-28T07:02:48;99528.63;;;20.81;100.00
49723;BME280;43484;43.608;1.458;2023-05-28T07:05:15;99521.69;;;20.81;100.00
49723;BME280;43484;43.608;1.458;2023-05-28T07:07:41;99523.44;;;20.79;100.00
49723;BME280;43484;43.608;1.458;2023-05-28T07:10:08;99525.13;;;20.82;100.00
49723;BME280;43484;43.608;1.458;2023-05-28T07:12:38;99529.44;;;20.84;100.00
49723;BME280;43484;43.608;1.458;2023-05-28T07:15:05;99529.28;;;20.92;100.00
49723;BME280;43484;43.608;1.458;2023-05-28T07:17:32;99529.28;;;20.92;100.00
49723;BME280;43484;43.608;1.458;2023-05-28T07:19:59;99536.19;;;20.97;100.00
49723;BME280;43484;43.608;1.458;2023-05-28T07:22:26;99534.25;;;21.08;100.00
49723;BME280;43484;43.608;1.458;2023-05-28T07:24:53;99535.88;;;21.14;100.00
49723;BME280;43484;43.608;1.458;2023-05-28T07:27:19;99535.03;;;21.13;100.00
49723;BME280;43484;43.608;1.458;2023-05-28T07:29:46;99530.56;;;21.22;100.00
49723;BME280;43484;43.608;1.458;2023-05-28T07:32:13;99528.78;;;21.22;100.00
49723;BME280;43484;43.608;1.458;2023-05-28T07:34:40;99536.44;;;21.31;100.00
49723;BME280;43484;43.608;1.458;2023-05-28T07:37:07;99535.44;;;21.38;100.00
49723;BME280;43484;43.608;1.458;2023-05-28T07:39:34;99522.41;;;21.38;100.00
49723;BME280;43484;43.608;1.458;2023-05-28T07:42:01;99526.69;;;21.41;100.00
49723;BME280;43484;43.608;1.458;2023-05-28T07:44:28;99528.38;;;21.45;100.00
49723;BME280;43484;43.608;1.458;2023-05-28T07:46:54;99529.06;;;21.53;100.00
49723;BME280;43484;43.608;1.458;2023-05-28T07:49:21;99524.47;;;21.67;100.00
49723;BME280;43484;43.608;1.458;2023-05-28T07:51:48;99525.06;;;21.81;100.00
49723;BME280;43484;43.608;1.458;2023-05-28T07:54:15;99523.25;;;21.84;100.00
49723;BME280;43484;43.608;1.458;2023-05-28T07:56:41;99517.84;;;21.93;100.00
49723;BME280;43484;43.608;1.458;2023-05-28T07:59:08;99515.84;;;22.04;100.00
49723;BME280;43484;43.608;1.458;2023-05-28T08:01:37;99519.09;;;22.14;100.00
49723;BME280;43484;43.608;1.458;2023-05-28T08:04:04;99512.75;;;22.25;100.00
49723;BME280;43484;43.608;1.458;2023-05-28T08:06:31;99505.50;;;22.38;100.00
49723;BME280;43484;43.608;1.458;2023-05-28T08:08:58;99514.16;;;22.40;100.00
49723;BME280;43484;43.608;1.458;2023-05-28T08:11:25;99516.63;;;22.46;100.00
49723;BME280;43484;43.608;1.458;2023-05-28T08:13:52;99516.41;;;22.57;100.00
49723;BME280;43484;43.608;1.458;2023-05-28T08:16:19;99521.38;;;22.67;100.00
49723;BME280;43484;43.608;1.458;2023-05-28T08:18:45;99512.38;;;22.79;100.00
49723;BME280;43484;43.608;1.458;2023-05-28T08:21:12;99510.56;;;22.82;100.00
49723;BME280;43484;43.608;1.458;2023-05-28T08:23:39;99511.31;;;22.87;100.00
49723;BME280;43484;43.608;1.458;2023-05-28T08:26:05;99505.88;;;22.95;100.00
49723;BME280;43484;43.608;1.458;2023-05-28T08:28:32;99510.22;;;22.94;100.00
49723;BME280;43484;43.608;1.458;2023-05-28T08:31:02;99504.81;;;23.02;100.00
49723;BME280;43484;43.608;1.458;2023-05-28T08:33:29;99498.50;;;23.10;100.00
49723;BME280;43484;43.608;1.458;2023-05-28T08:35:55;99506.91;;;23.21;100.00
49723;BME280;43484;43.608;1.458;2023-05-28T08:38:22;99502.44;;;23.25;100.00
49723;BME280;43484;43.608;1.458;2023-05-28T08:40:51;99496.97;;;23.35;100.00
49723;BME280;43484;43.608;1.458;2023-05-28T08:43:19;99499.41;;;23.41;100.00
49723;BME280;43484;43.608;1.458;2023-05-28T08:45:46;99493.16;;;23.47;100.00
49723;BME280;43484;43.608;1.458;2023-05-28T08:48:14;99493.88;;;23.52;100.00
49723;BME280;43484;43.608;1.458;2023-05-28T08:50:43;99489.28;;;23.60;100.00
49723;BME280;43484;43.608;1.458;2023-05-28T08:53:15;99491.09;;;23.58;100.00
49723;BME280;43484;43.608;1.458;2023-05-28T08:55:44;99486.63;;;23.62;100.00
49723;BME280;43484;43.608;1.458;2023-05-28T08:58:11;99488.25;;;23.66;100.00
49723;BME280;43484;43.608;1.458;2023-05-28T09:00:38;99486.31;;;23.72;100.00
49723;BME280;43484;43.608;1.458;2023-05-28T09:03:05;99479.28;;;23.74;100.00
49723;BME280;43484;43.608;1.458;2023-05-28T09:05:35;99479.16;;;23.79;100.00
49723;BME280;43484;43.608;1.458;2023-05-28T09:08:09;99483.41;;;23.83;100.00
49723;BME280;43484;43.608;1.458;2023-05-28T09:10:38;99476.03;;;23.95;100.00
49723;BME280;43484;43.608;1.458;2023-05-28T09:13:05;99478.53;;;24.00;100.00
49723;BME280;43484;43.608;1.458;2023-05-28T09:15:33;99474.28;;;23.96;100.00
49723;BME280;43484;43.608;1.458;2023-05-28T09:18:05;99474.44;;;23.90;100.00
49723;BME280;43484;43.608;1.458;2023-05-28T09:20:32;99475.22;;;23.93;100.00
49723;BME280;43484;43.608;1.458;2023-05-28T09:23:03;99475.16;;;23.95;100.00
49723;BME280;43484;43.608;1.458;2023-05-28T09:25:34;99469.59;;;24.07;100.00
49723;BME280;43484;43.608;1.458;2023-05-28T09:28:03;99469.41;;;24.13;100.00
49723;BME280;43484;43.608;1.458;2023-05-28T09:30:34;99473.53;;;24.20;100.00
49723;BME280;43484;43.608;1.458;2023-05-28T09:33:03;99468.19;;;24.24;100.00
49723;BME280;43484;43.608;1.458;2023-05-28T09:35:31;99473.31;;;24.27;100.00
49723;BME280;43484;43.608;1.458;2023-05-28T09:38:05;99470.91;;;24.21;100.00
49723;BME280;43484;43.608;1.458;2023-05-28T09:40:39;99468.06;;;24.27;100.00
49723;BME280;43484;43.608;1.458;2023-05-28T09:43:07;99465.56;;;24.24;100.00
49723;BME280;43484;43.608;1.458;2023-05-28T09:45:35;99461.69;;;24.36;100.00
49723;BME280;43484;43.608;1.458;2023-05-28T09:48:02;99459.69;;;24.44;100.00
49723;BME280;43484;43.608;1.458;2023-05-28T09:50:29;99455.31;;;24.44;100.00
49723;BME280;43484;43.608;1.458;2023-05-28T09:52:57;99454.75;;;24.61;100.00
49723;BME280;43484;43.608;1.458;2023-05-28T09:55:26;99453.44;;;24.74;100.00
49723;BME280;43484;43.608;1.458;2023-05-28T09:58:00;99461.41;;;24.71;100.00
49723;BME280;43484;43.608;1.458;2023-05-28T10:00:32;99450.59;;;24.54;100.00
49723;BME280;43484;43.608;1.458;2023-05-28T10:05:39;99450.78;;;24.75;100.00
49723;BME280;43484;43.608;1.458;2023-05-28T10:08:10;99452.00;;;24.90;100.00
49723;BME280;43484;43.608;1.458;2023-05-28T10:10:38;99445.28;;;24.83;100.00
49723;BME280;43484;43.608;1.458;2023-05-28T10:13:06;99449.03;;;24.76;100.00
49723;BME280;43484;43.608;1.458;2023-05-28T10:15:36;99437.16;;;24.91;100.00
49723;BME280;43484;43.608;1.458;2023-05-28T10:18:03;99440.69;;;24.90;100.00
49723;BME280;43484;43.608;1.458;2023-05-28T10:20:30;99440.56;;;24.93;100.00
49723;BME280;43484;43.608;1.458;2023-05-28T10:22:58;99431.94;;;25.14;100.00
49723;BME280;43484;43.608;1.458;2023-05-28T10:25:25;99436.25;;;25.16;100.00
49723;BME280;43484;43.608;1.458;2023-05-28T10:27:59;99427.50;;;25.16;100.00
49723;BME280;43484;43.608;1.458;2023-05-28T10:32:59;99422.09;;;25.20;100.00
49723;BME280;43484;43.608;1.458;2023-05-28T10:35:26;99419.75;;;25.37;100.00
49723;BME280;43484;43.608;1.458;2023-05-28T10:38:04;99412.22;;;25.51;100.00
49723;BME280;43484;43.608;1.458;2023-05-28T10:40:32;99416.78;;;25.46;100.00
49723;BME280;43484;43.608;1.458;2023-05-28T10:43:00;99413.25;;;25.47;100.00
49723;BME280;43484;43.608;1.458;2023-05-28T10:45:37;99406.44;;;25.43;100.00
49723;BME280;43484;43.608;1.458;2023-05-28T10:48:04;99403.88;;;25.40;100.00
49723;BME280;43484;43.608;1.458;2023-05-28T10:50:55;99401.06;;;25.46;100.00
49723;BME280;43484;43.608;1.458;2023-05-28T10:53:24;99398.53;;;25.66;100.00
49723;BME280;43484;43.608;1.458;2023-05-28T10:55:54;99392.13;;;25.73;100.00
49723;BME280;43484;43.608;1.458;2023-05-28T10:58:35;99405.41;;;25.69;100.00
49723;BME280;43484;43.608;1.458;2023-05-28T11:03:43;99400.75;;;25.77;100.00
49723;BME280;43484;43.608;1.458;2023-05-28T11:06:11;99395.31;;;25.81;100.00
49723;BME280;43484;43.608;1.458;2023-05-28T11:08:43;99380.09;;;25.89;100.00
49723;BME280;43484;43.608;1.458;2023-05-28T11:11:11;99383.97;;;26.03;100.00
49723;BME280;43484;43.608;1.458;2023-05-28T11:13:46;99386.25;;;26.12;100.00
49723;BME280;43484;43.608;1.458;2023-05-28T11:16:16;99377.34;;;26.16;100.00
49723;BME280;43484;43.608;1.458;2023-05-28T11:19:03;99370.16;;;26.19;100.00
49723;BME280;43484;43.608;1.458;2023-05-28T11:21:31;99367.03;;;26.31;100.00
49723;BME280;43484;43.608;1.458;2023-05-28T11:24:03;99375.22;;;26.45;100.00
49723;BME280;43484;43.608;1.458;2023-05-28T11:26:31;99361.28;;;26.43;100.00
49723;BME280;43484;43.608;1.458;2023-05-28T11:28:58;99361.34;;;26.42;100.00
49723;BME280;43484;43.608;1.458;2023-05-28T11:31:26;99354.84;;;26.30;100.00
49723;BME280;43484;43.608;1.458;2023-05-28T11:33:54;99360.03;;;26.32;100.00
49723;BME280;43484;43.608;1.458;2023-05-28T11:36:21;99352.59;;;26.41;100.00
49723;BME280;43484;43.608;1.458;2023-05-28T11:39:00;99354.13;;;26.47;100.00
49723;BME280;43484;43.608;1.458;2023-05-28T11:41:26;99347.69;;;26.54;100.00
49723;BME280;43484;43.608;1.458;2023-05-28T11:43:53;99342.09;;;26.61;100.00
49723;BME280;43484;43.608;1.458;2023-05-28T11:46:21;99338.38;;;26.67;100.00
49723;BME280;43484;43.608;1.458;2023-05-28T11:48:48;99339.19;;;26.69;98.45
49723;BME280;43484;43.608;1.458;2023-05-28T11:51:15;99334.91;;;26.66;99.48
49723;BME280;43484;43.608;1.458;2023-05-28T11:53:44;99333.06;;;26.68;100.00
49723;BME280;43484;43.608;1.458;2023-05-28T11:56:12;99328.28;;;26.56;100.00
49723;BME280;43484;43.608;1.458;2023-05-28T11:58:43;99324.56;;;26.62;100.00
49723;BME280;43484;43.608;1.458;2023-05-28T12:01:15;99321.28;;;26.77;100.00
49723;BME280;43484;43.608;1.458;2023-05-28T12:03:44;99313.38;;;26.97;100.00
49723;BME280;43484;43.608;1.458;2023-05-28T12:06:11;99307.00;;;27.02;100.00
49723;BME280;43484;43.608;1.458;2023-05-28T12:08:43;99309.63;;;27.02;100.00
49723;BME280;43484;43.608;1.458;2023-05-28T12:11:10;99300.38;;;27.12;100.00
49723;BME280;43484;43.608;1.458;2023-05-28T12:13:36;99303.28;;;27.06;96.61
49723;BME280;43484;43.608;1.458;2023-05-28T12:16:11;99297.38;;;27.01;100.00
49723;BME280;43484;43.608;1.458;2023-05-28T12:18:43;99298.00;;;27.06;95.28
49723;BME280;43484;43.608;1.458;2023-05-28T12:21:13;99297.31;;;27.03;94.09
49723;BME280;43484;43.608;1.458;2023-05-28T12:23:45;99288.06;;;26.94;95.97
49723;BME280;43484;43.608;1.458;2023-05-28T12:26:13;99281.41;;;26.87;97.85
49723;BME280;43484;43.608;1.458;2023-05-28T12:28:41;99274.16;;;26.92;96.70
49723;BME280;43484;43.608;1.458;2023-05-28T12:31:08;99272.00;;;27.00;95.81
49723;BME280;43484;43.608;1.458;2023-05-28T12:33:35;99267.97;;;27.12;95.92
49723;BME280;43484;43.608;1.458;2023-05-28T12:36:02;99258.66;;;27.24;96.00
49723;BME280;43484;43.608;1.458;2023-05-28T12:38:29;99261.97;;;27.27;92.92
49723;BME280;43484;43.608;1.458;2023-05-28T12:40:55;99263.97;;;27.22;93.53
49723;BME280;43484;43.608;1.458;2023-05-28T12:43:23;99251.00;;;27.38;92.77
49723;BME280;43484;43.608;1.458;2023-05-28T12:45:49;99253.09;;;27.48;89.17
49723;BME280;43484;43.608;1.458;2023-05-28T12:48:16;99248.38;;;27.38;85.63
49723;BME280;43484;43.608;1.458;2023-05-28T12:50:43;99245.19;;;27.31;88.06
49723;BME280;43484;43.608;1.458;2023-05-28T12:53:09;99238.31;;;27.46;84.38
49723;BME280;43484;43.608;1.458;2023-05-28T12:55:36;99236.53;;;27.46;83.27
49723;BME280;43484;43.608;1.458;2023-05-28T12:58:03;99237.75;;;27.39;86.60
49723;BME280;43484;43.608;1.458;2023-05-28T13:00:30;99244.47;;;27.45;82.88
49723;BME280;43484;43.608;1.458;2023-05-28T13:02:57;99238.56;;;27.41;80.79